createdAt,value
2022-09-21T00:05:21.009Z,5.22
2022-09-21T00:10:42.813Z,5.50
2022-09-21T00:16:08.889Z,5.85
2022-09-21T00:21:30.758Z,5.82
2022-09-21T00:26:52.459Z,5.40
2022-09-21T00:32:15.520Z,5.00
2022-09-21T00:37:37.293Z,5.60
2022-09-21T00:43:16.479Z,5.30
2022-09-21T00:48:38.412Z,4.03
2022-09-21T00:54:09.410Z,3.50
2022-09-21T00:59:34.204Z,3.80
2022-09-21T01:04:56.649Z,3.60
2022-09-21T01:10:19.292Z,3.37
2022-09-21T01:15:59.636Z,3.23
2022-09-21T01:21:26.674Z,3.47
2022-09-21T01:27:33.275Z,3.73
2022-09-21T01:33:04.273Z,3.63
2022-09-21T01:38:42.014Z,3.83
2022-09-21T01:44:09.464Z,4.60
2022-09-21T01:49:38.224Z,5.47
2022-09-21T01:55:16.587Z,6.00
2022-09-21T02:00:40.207Z,6.50
2022-09-21T02:06:04.624Z,5.78
2022-09-21T02:11:26.555Z,5.40
2022-09-21T02:17:00.709Z,5.90
2022-09-21T02:22:22.321Z,8.63
2022-09-21T02:28:07.538Z,6.77
2022-09-21T02:33:37.885Z,6.05
2022-09-21T02:39:25.066Z,4.70
2022-09-21T02:44:54.748Z,4.13
2022-09-21T02:50:34.422Z,3.83
2022-09-21T02:55:59.051Z,4.23
2022-09-21T03:01:22.517Z,3.83
2022-09-21T03:06:44.308Z,4.43
2022-09-21T03:12:06.049Z,4.63
2022-09-21T03:17:27.818Z,5.47
2022-09-21T03:22:49.581Z,5.33
2022-09-21T03:28:12.567Z,5.17
2022-09-21T03:33:34.305Z,5.23
2022-09-21T03:38:56.108Z,5.07
2022-09-21T03:44:18.064Z,5.13
2022-09-21T03:49:39.753Z,4.30
2022-09-21T03:55:03.250Z,3.90
2022-09-21T04:00:24.970Z,5.40
2022-09-21T04:05:46.699Z,5.30
2022-09-21T04:11:12.748Z,6.03
2022-09-21T04:16:34.541Z,5.90
2022-09-21T04:21:56.352Z,6.07
2022-09-21T04:27:18.243Z,6.63
2022-09-21T04:32:40.405Z,8.03
2022-09-21T04:38:02.142Z,6.00
2022-09-21T04:43:24.124Z,5.87
2022-09-21T04:48:46.676Z,5.87
2022-09-21T04:54:08.465Z,6.10
2022-09-21T04:59:30.195Z,6.53
2022-09-21T05:04:51.901Z,6.20
2022-09-21T05:10:13.705Z,7.37
2022-09-21T05:15:39.409Z,7.10
2022-09-21T05:21:02.534Z,7.10
2022-09-21T05:26:25.096Z,6.87
2022-09-21T05:32:03.207Z,6.93
2022-09-21T05:37:50.616Z,6.60
2022-09-21T05:43:12.619Z,7.20
2022-09-21T05:48:43.088Z,6.90
2022-09-21T05:54:12.233Z,8.00
2022-09-21T05:59:41.328Z,7.77
2022-09-21T06:05:10.438Z,8.13
2022-09-21T06:10:34.576Z,7.70
2022-09-21T06:15:57.044Z,7.33
2022-09-21T06:21:18.945Z,8.37
2022-09-21T06:26:40.699Z,8.87
2022-09-21T06:32:04.122Z,8.40
2022-09-21T06:37:25.862Z,8.77
2022-09-21T06:42:47.595Z,9.47
2022-09-21T06:48:10.067Z,9.47
2022-09-21T06:53:34.039Z,9.13
2022-09-21T06:58:56.089Z,9.17
2022-09-21T07:04:20.870Z,9.43
2022-09-21T07:15:29.944Z,8.80
2022-09-21T07:20:51.768Z,9.73
2022-09-21T07:26:13.732Z,8.93
2022-09-21T07:31:35.562Z,9.25
2022-09-21T07:36:57.309Z,9.10
2022-09-21T07:42:20.534Z,8.13
2022-09-21T07:47:42.289Z,8.60
2022-09-21T07:53:04.100Z,8.63
2022-09-21T07:58:44.478Z,8.23
2022-09-21T08:04:08.663Z,7.32
2022-09-21T08:09:30.561Z,7.72
2022-09-21T08:14:52.564Z,7.60
2022-09-21T08:20:14.563Z,8.35
2022-09-21T08:25:36.336Z,6.93
2022-09-21T08:31:03.366Z,7.03
2022-09-21T08:36:25.427Z,7.07
2022-09-21T08:42:14.491Z,6.65
2022-09-21T08:47:59.202Z,7.22
2022-09-21T08:53:34.513Z,6.18
2022-09-21T08:58:56.292Z,4.53
2022-09-21T09:04:20.736Z,4.90
2022-09-21T09:10:14.960Z,4.50
2022-09-21T09:15:54.558Z,4.70
2022-09-21T09:21:34.308Z,4.70
2022-09-21T09:27:16.797Z,4.03
2022-09-21T09:32:53.167Z,3.75
2022-09-21T09:38:34.041Z,3.20
2022-09-21T09:44:34.536Z,2.60
2022-09-21T09:50:21.762Z,2.80
2022-09-21T09:55:47.862Z,2.75
2022-09-21T10:01:29.748Z,2.38
2022-09-21T10:06:51.709Z,2.00
2022-09-21T10:12:23.863Z,1.80
2022-09-21T10:17:46.901Z,1.95
2022-09-21T10:23:13.371Z,1.50
2022-09-21T10:28:36.121Z,1.63
2022-09-21T10:34:03.958Z,1.40
2022-09-21T10:39:27.261Z,1.17
2022-09-21T10:44:52.959Z,1.17
2022-09-21T10:50:26.822Z,1.10
2022-09-21T10:56:17.435Z,0.85
2022-09-21T11:01:48.610Z,1.00
2022-09-21T11:07:26.873Z,0.82
2022-09-21T11:13:17.868Z,1.27
2022-09-21T11:19:01.887Z,1.67
2022-09-21T11:24:50.172Z,2.13
2022-09-21T11:30:13.545Z,1.20
2022-09-21T11:35:51.967Z,1.60
2022-09-21T11:41:30.922Z,1.00
2022-09-21T11:47:35.533Z,1.00
2022-09-21T11:53:28.219Z,0.80
2022-09-21T11:58:53.331Z,0.80
2022-09-21T12:04:36.744Z,0.82
2022-09-21T12:10:15.118Z,0.75
2022-09-21T12:15:48.034Z,1.05
2022-09-21T12:21:19.524Z,0.90
2022-09-21T12:26:52.321Z,0.80
2022-09-21T12:32:37.548Z,0.68
2022-09-21T12:38:05.317Z,0.60
2022-09-21T12:43:51.809Z,0.65
2022-09-21T12:49:26.241Z,0.80
2022-09-21T12:55:17.576Z,0.82
2022-09-21T13:00:47.670Z,0.80
2022-09-21T13:06:39.703Z,0.70
2022-09-21T13:12:09.110Z,0.77
2022-09-21T13:17:33.064Z,0.82
2022-09-21T13:23:02.560Z,0.98
2022-09-21T13:28:41.621Z,0.60
2022-09-21T13:34:21.409Z,0.82
2022-09-21T13:39:45.415Z,0.80
2022-09-21T13:45:19.757Z,0.70
2022-09-21T13:50:44.131Z,0.73
2022-09-21T13:56:09.885Z,0.70
2022-09-21T14:01:50.997Z,0.65
2022-09-21T14:07:14.165Z,0.70
2022-09-21T14:12:45.070Z,0.80
2022-09-21T14:18:20.446Z,0.73
2022-09-21T14:24:02.160Z,0.90
2022-09-21T14:29:29.689Z,1.10
2022-09-21T14:34:56.513Z,0.60
2022-09-21T14:40:24.631Z,0.75
2022-09-21T14:46:24.061Z,1.00
2022-09-21T14:52:22.491Z,1.20
2022-09-21T14:58:11.629Z,1.00
2022-09-21T15:04:12.162Z,0.88
2022-09-21T15:10:06.802Z,0.90
2022-09-21T15:15:46.963Z,0.70
2022-09-21T15:21:21.684Z,0.70
2022-09-21T15:26:43.670Z,1.00
2022-09-21T15:32:07.176Z,0.65
2022-09-21T15:37:30.450Z,0.80
2022-09-21T15:43:17.044Z,0.88
2022-09-21T15:48:42.122Z,0.90
2022-09-21T15:54:15.666Z,0.80
2022-09-21T15:59:37.443Z,0.90
2022-09-21T16:04:59.206Z,0.73
2022-09-21T16:10:30.065Z,0.95
2022-09-21T16:16:09.740Z,0.65
2022-09-21T16:21:37.717Z,0.80
2022-09-21T16:27:02.625Z,0.90
2022-09-21T16:32:31.901Z,0.70
2022-09-21T16:37:57.495Z,0.60
2022-09-21T16:43:20.790Z,0.80
2022-09-21T16:48:42.591Z,0.85
2022-09-21T16:54:04.708Z,0.77
2022-09-21T16:59:27.567Z,1.02
2022-09-21T17:04:49.358Z,1.30
2022-09-21T17:10:14.822Z,1.00
2022-09-21T17:15:43.045Z,0.88
2022-09-21T17:21:05.283Z,1.45
2022-09-21T17:26:28.131Z,1.50
2022-09-21T17:31:54.914Z,1.80
2022-09-21T17:37:16.674Z,1.92
2022-09-21T17:42:41.220Z,2.70
2022-09-21T17:48:03.891Z,2.83
2022-09-21T17:53:36.904Z,2.60
2022-09-21T17:59:05.679Z,2.22
2022-09-21T18:04:31.080Z,2.13
2022-09-21T18:09:53.190Z,2.35
2022-09-21T18:15:44.683Z,3.10
2022-09-21T18:21:18.472Z,2.42
2022-09-21T18:26:41.908Z,1.75
2022-09-21T18:32:42.761Z,2.40
2022-09-21T18:38:20.784Z,1.40
2022-09-21T18:44:08.954Z,2.20
2022-09-21T18:49:45.796Z,2.53
2022-09-21T18:55:18.268Z,2.35
2022-09-21T19:00:41.938Z,2.35
2022-09-21T19:06:37.581Z,2.30
2022-09-21T19:12:36.698Z,1.85
2022-09-21T19:18:28.496Z,1.60
2022-09-21T19:23:56.337Z,1.50
2022-09-21T19:29:24.023Z,1.25
2022-09-21T19:34:45.917Z,1.67
2022-09-21T19:40:08.553Z,2.30
2022-09-21T19:45:48.112Z,2.00
2022-09-21T19:51:17.557Z,2.67
2022-09-21T19:57:06.475Z,2.53
2022-09-21T20:02:42.890Z,2.40
2022-09-21T20:08:18.996Z,1.98
2022-09-21T20:13:53.472Z,2.92
2022-09-21T20:19:37.464Z,2.83
2022-09-21T20:25:13.734Z,3.20
2022-09-21T20:30:38.375Z,3.30
2022-09-21T20:36:00.441Z,3.28
2022-09-21T20:41:24.396Z,3.22
2022-09-21T20:46:46.136Z,3.30
2022-09-21T20:52:09.494Z,2.80
2022-09-21T20:57:31.834Z,3.30
2022-09-21T21:02:54.437Z,2.40
2022-09-21T21:08:16.205Z,3.00
2022-09-21T21:13:37.988Z,2.70
2022-09-21T21:19:00.204Z,2.75
2022-09-21T21:24:39.995Z,3.25
2022-09-21T21:30:02.239Z,3.63
2022-09-21T21:35:24.059Z,3.58
2022-09-21T21:40:45.890Z,3.73
2022-09-21T21:46:09.511Z,3.83
2022-09-21T21:51:31.587Z,5.10
2022-09-21T21:56:53.740Z,3.90
2022-09-21T22:02:15.693Z,3.78
2022-09-21T22:07:39.448Z,3.50
2022-09-21T22:13:01.914Z,3.70
2022-09-21T22:18:23.662Z,4.32
2022-09-21T22:23:45.373Z,4.20
2022-09-21T22:29:09.534Z,3.33
2022-09-21T22:34:31.271Z,4.28
2022-09-21T22:39:53.684Z,3.75
2022-09-21T22:45:15.573Z,3.70
2022-09-21T22:50:38.354Z,3.90
2022-09-21T22:56:08.477Z,4.03
2022-09-21T23:01:34.067Z,4.07
2022-09-21T23:06:55.781Z,6.90
2022-09-21T23:12:17.528Z,5.45
2022-09-21T23:17:39.336Z,4.25
2022-09-21T23:23:01.215Z,3.85
2022-09-21T23:28:22.970Z,4.20
2022-09-21T23:33:51.149Z,3.80
2022-09-21T23:39:15.324Z,3.67
2022-09-21T23:44:37.161Z,3.88
2022-09-21T23:49:58.875Z,4.17
2022-09-21T23:55:20.652Z,4.20
